»·PEaware :: WAT2489 KTEX-KSEZ

WAT2489 :: KTEX-KSEZ

FLIGHT INFORMATION

Flight Status: Arrived
Operator:
Walker Air Transport
More flights by this operator :: More flights under this callsign
Pilot: Graham D. (41507)
Aircraft: CIRRUS VISIONJET
(SF50)
More flights by this aircraft type
Origin: KTEX Telluride Regl
United States
Destination: KSEZ Sedona
United States
More flights between these airports :: More routes between these airports
Route: ETL V68 HAVWU KA30O JUWSO
File this flight plan on PilotEdge
Remarks:
Altitude:
(Current/Filed)
30,000ft
Speed:
(Current/Filed)
318kts
Departed: 02-Jan-23 01:27 PM
Arrived: 02-Jan-23 02:41 PM
Distance/Time
Traveled:
264nm/1:14
Distance/Time
To Go:
Arrived

Flight Plot

Page will automatically refresh every two minutes.

Flight plan parsing failed; only flown route is shown


Map Options




Map Legend


Flown Route
Filed Route
Departure Airport
Arrival Airport
Navaid (VOR, NDB)
Fix

Horizontal Profiles

Position Reports

Time Latitude Longitude Heading Altitude Ground
Speed
02-Jan-23 13:13 37.953962 -107.901087 192 9074ft 0kts
02-Jan-23 13:14 37.953962 -107.901087 192 9074ft 0kts
02-Jan-23 13:15 37.953962 -107.901087 192 9074ft 0kts
02-Jan-23 13:16 37.953962 -107.901087 192 9074ft 0kts
02-Jan-23 13:17 37.953962 -107.901087 192 9074ft 0kts
02-Jan-23 13:18 37.953962 -107.901087 192 9074ft 0kts
02-Jan-23 13:19 37.953962 -107.901087 192 9074ft 0kts
02-Jan-23 13:20 37.953962 -107.901087 192 9074ft 0kts
02-Jan-23 13:21 37.953962 -107.901087 192 9074ft 0kts
02-Jan-23 13:22 37.953962 -107.901087 192 9074ft 0kts
02-Jan-23 13:23 37.953923 -107.901098 192 9074ft 1kts
02-Jan-23 13:24 37.953069 -107.899727 106 9074ft 8kts
02-Jan-23 13:25 37.952591 -107.897490 103 9074ft 5kts
02-Jan-23 13:26 37.951812 -107.899239 283 9074ft 51kts
02-Jan-23 13:27 37.962098 -107.933670 300 9784ft 125kts
02-Jan-23 13:28 37.979436 -107.983790 287 11428ft 169kts
02-Jan-23 13:29 37.994579 -108.047203 283 13733ft 187kts
02-Jan-23 13:30 38.008326 -108.110355 283 16070ft 192kts
02-Jan-23 13:31 38.022486 -108.176068 282 18242ft 194kts
02-Jan-23 13:32 38.036896 -108.243157 284 20107ft 200kts
02-Jan-23 13:33 38.021943 -108.310843 251 21770ft 208kts
02-Jan-23 13:34 37.998946 -108.379563 250 23246ft 215kts
02-Jan-23 13:35 37.975056 -108.449537 250 24650ft 219kts
02-Jan-23 13:36 37.932868 -108.508626 230 25864ft 231kts
02-Jan-23 13:37 37.886901 -108.566651 229 26971ft 236kts
02-Jan-23 13:38 37.839782 -108.625812 229 27995ft 241kts
02-Jan-23 13:39 37.791464 -108.686359 228 28914ft 246kts
02-Jan-23 13:40 37.742467 -108.747631 229 29739ft 251kts
02-Jan-23 13:41 37.689414 -108.813867 228 29755ft 281kts
02-Jan-23 13:42 37.632353 -108.884882 229 29750ft 289kts
02-Jan-23 13:43 37.575600 -108.955396 229 29752ft 282kts
02-Jan-23 13:44 37.519399 -109.025097 229 29775ft 289kts
02-Jan-23 13:45 37.460571 -109.097832 229 29801ft 298kts
02-Jan-23 13:46 37.401329 -109.170948 229 29829ft 298kts
02-Jan-23 13:47 37.342061 -109.243953 229 29844ft 298kts
02-Jan-23 13:48 37.282804 -109.316710 230 29847ft 298kts
02-Jan-23 13:49 37.223386 -109.389454 230 29839ft 299kts
02-Jan-23 13:50 37.163939 -109.462122 230 29839ft 299kts
02-Jan-23 13:51 37.104577 -109.534577 230 29834ft 298kts
02-Jan-23 13:52 37.045120 -109.606997 230 29830ft 298kts
02-Jan-23 13:53 36.985592 -109.679216 230 29837ft 298kts
02-Jan-23 13:54 36.926091 -109.751290 230 29835ft 298kts
02-Jan-23 13:55 36.866603 -109.823186 230 29832ft 297kts
02-Jan-23 13:56 36.807172 -109.894815 231 29840ft 297kts
02-Jan-23 13:57 36.747691 -109.966377 231 29858ft 297kts
02-Jan-23 13:58 36.688006 -110.038011 232 29908ft 298kts
02-Jan-23 13:59 36.628493 -110.109297 232 29954ft 298kts
02-Jan-23 14:00 36.568686 -110.180747 232 29944ft 297kts
02-Jan-23 14:01 36.509018 -110.251892 232 29893ft 297kts
02-Jan-23 14:02 36.449500 -110.322690 232 29860ft 297kts
02-Jan-23 14:03 36.389820 -110.393520 232 29860ft 297kts
02-Jan-23 14:04 36.330115 -110.464223 232 29860ft 297kts
02-Jan-23 14:05 36.270093 -110.535126 232 29860ft 296kts
02-Jan-23 14:06 36.210006 -110.605979 232 29860ft 296kts
02-Jan-23 14:07 36.149470 -110.677186 232 29877ft 298kts
02-Jan-23 14:08 36.089136 -110.747993 232 29801ft 299kts
02-Jan-23 14:09 36.029332 -110.818036 232 28436ft 291kts
02-Jan-23 14:10 35.971165 -110.885963 233 27061ft 282kts
02-Jan-23 14:11 35.914483 -110.952119 232 25685ft 276kts
02-Jan-23 14:12 35.862755 -111.012344 230 24379ft 272kts
02-Jan-23 14:13 35.808266 -111.075576 230 22955ft 265kts
02-Jan-23 14:14 35.755224 -111.137145 229 21536ft 257kts
02-Jan-23 14:15 35.703625 -111.196764 229 20253ft 250kts
02-Jan-23 14:16 35.653211 -111.254991 229 19236ft 245kts
02-Jan-23 14:17 35.603945 -111.311806 228 18221ft 240kts
02-Jan-23 14:18 35.555638 -111.367380 228 17204ft 234kts
02-Jan-23 14:19 35.508409 -111.421642 228 16186ft 229kts
02-Jan-23 14:21 35.462506 -111.474292 228 15169ft 223kts
02-Jan-23 14:22 35.417421 -111.525951 227 14149ft 219kts
02-Jan-23 14:23 35.373020 -111.576678 227 13990ft 217kts
02-Jan-23 14:24 35.328340 -111.627684 227 13996ft 218kts
02-Jan-23 14:25 35.283612 -111.678649 227 14001ft 218kts
02-Jan-23 14:26 35.238919 -111.729502 227 14001ft 218kts
02-Jan-23 14:27 35.194230 -111.780274 227 13684ft 218kts
02-Jan-23 14:28 35.150360 -111.830035 226 12582ft 211kts
02-Jan-23 14:29 35.107583 -111.878494 226 11474ft 206kts
02-Jan-23 14:30 35.065615 -111.925924 224 10367ft 204kts
02-Jan-23 14:31 35.024423 -111.972453 224 10008ft 202kts
02-Jan-23 14:32 34.975408 -112.006069 197 10009ft 211kts
02-Jan-23 14:33 34.917614 -112.020415 193 10008ft 211kts
02-Jan-23 14:34 34.883476 -111.969049 106 9322ft 202kts
02-Jan-23 14:35 34.870982 -111.904948 106 8119ft 191kts
02-Jan-23 14:36 34.859026 -111.842752 107 6924ft 186kts
02-Jan-23 14:37 34.841577 -111.784793 115 6310ft 179kts
02-Jan-23 14:38 34.857672 -111.740374 38 6197ft 137kts
02-Jan-23 14:39 34.879259 -111.755240 238 5649ft 103kts
02-Jan-23 14:40 34.858611 -111.776374 231 4965ft 85kts
02-Jan-23 14:41 34.849073 -111.788862 339 4798ft 3kts
02-Jan-23 14:42 34.850565 -111.787699 223 4809ft 0kts
02-Jan-23 14:43 34.850565 -111.787699 223 4809ft 0kts
02-Jan-23 14:43 34.850565 -111.787699 223 4809ft 0kts
02-Jan-23 14:45 34.850565 -111.787699 223 4809ft 0kts
02-Jan-23 14:46 34.850565 -111.787699 223 4809ft 0kts
02-Jan-23 14:47 34.850565 -111.787699 223 4809ft 0kts

Navigation Log

Ident Type
Flight plan parsing failed, navigation log unavailable